Time;durP1;ratioP1;P1;durP2;ratioP2;P2;SDS_P1;SDS_P2;PMS_P1;PMS_P2;Temp;Humidity;BMP_temperature;BMP_pressure;BME280_temperature;BME280_humidity;BME280_pressure;Samples;Min_cycle;Max_cycle;Signal;HPM_P1;HPM_P2
2023/12/07 00:01:34;;;;;;;49.57;37.10;;;;;;;2.01;100.00;101677.69;6213399;28;20260;-77
2023/12/07 00:04:54;;;;;;;59.83;31.33;;;;;;;2.18;100.00;101679.66;6206343;28;20963;-76
2023/12/07 00:08:15;;;;;;;58.63;35.50;;;;;;;2.05;100.00;101681.06;6202460;28;20236;-76
2023/12/07 00:11:36;;;;;;;51.80;32.27;;;;;;;1.91;100.00;101688.75;6214760;28;20235;-78
2023/12/07 00:14:57;;;;;;;53.23;34.60;;;;;;;1.89;100.00;101687.94;6217902;28;20248;-76
2023/12/07 00:18:20;;;;;;;47.40;30.30;;;;;;;1.89;100.00;101687.94;6224075;28;20319;-76
2023/12/07 00:21:41;;;;;;;48.37;30.50;;;;;;;2.04;100.00;101684.66;6218130;28;20335;-76
2023/12/07 00:25:02;;;;;;;42.17;29.30;;;;;;;2.27;100.00;101696.06;6223041;28;20237;-77
2023/12/07 00:28:23;;;;;;;39.90;28.80;;;;;;;2.17;100.00;101699.22;6222789;28;20232;-77
2023/12/07 00:31:44;;;;;;;47.40;31.97;;;;;;;2.13;100.00;101701.09;6223096;28;20228;-77
2023/12/07 00:35:08;;;;;;;45.60;32.57;;;;;;;2.00;100.00;101699.84;6212534;28;20270;-76
2023/12/07 00:38:29;;;;;;;46.83;35.53;;;;;;;1.81;100.00;101703.34;6207246;28;20240;-77
2023/12/07 00:41:50;;;;;;;47.57;29.83;;;;;;;1.83;100.00;101704.13;6216047;28;20236;-76
2023/12/07 00:45:12;;;;;;;45.27;33.43;;;;;;;1.89;100.00;101704.75;6224306;28;20232;-76
2023/12/07 00:48:33;;;;;;;55.47;33.73;;;;;;;1.97;100.00;101712.41;6221280;28;20256;-75
2023/12/07 00:51:55;;;;;;;45.20;34.17;;;;;;;2.04;100.00;101706.81;6220286;28;20232;-75
2023/12/07 00:55:16;;;;;;;48.93;33.23;;;;;;;2.06;100.00;101712.06;6221520;28;20510;-74
2023/12/07 00:58:38;;;;;;;45.57;31.77;;;;;;;2.18;100.00;101700.91;6222071;28;20251;-74
2023/12/07 01:01:59;;;;;;;46.57;31.30;;;;;;;2.17;100.00;101707.19;6215755;28;20233;-76
2023/12/07 01:05:20;;;;;;;48.43;33.53;;;;;;;2.04;100.00;101714.78;6219764;28;20240;-76
2023/12/07 01:08:43;;;;;;;39.40;28.83;;;;;;;2.05;100.00;101710.31;6220605;28;20229;-76
2023/12/07 01:12:04;;;;;;;43.20;29.90;;;;;;;2.10;100.00;101721.66;6219007;28;20319;-75
2023/12/07 01:15:25;;;;;;;45.00;31.93;;;;;;;2.17;100.00;101731.97;6223191;28;20236;-76
2023/12/07 01:18:46;;;;;;;51.70;31.47;;;;;;;2.15;100.00;101736.47;6225574;28;20224;-76
2023/12/07 01:22:07;;;;;;;48.00;35.00;;;;;;;2.17;100.00;101741.75;6220837;28;20229;-75
2023/12/07 01:25:29;;;;;;;46.37;29.17;;;;;;;2.01;100.00;101745.94;6224348;28;20602;-76
2023/12/07 01:28:50;;;;;;;48.87;28.77;;;;;;;1.99;100.00;101747.78;6214557;28;20252;-75
2023/12/07 01:32:11;;;;;;;45.63;29.90;;;;;;;1.91;100.00;101750.75;6211611;28;20233;-75
2023/12/07 01:35:32;;;;;;;44.37;31.27;;;;;;;1.66;100.00;101749.09;6221800;28;20546;-75
2023/12/07 01:38:53;;;;;;;43.23;28.83;;;;;;;1.83;100.00;101754.63;6218985;28;20240;-74
2023/12/07 01:42:16;;;;;;;44.90;29.80;;;;;;;1.92;100.00;101764.94;6221910;28;20232;-75
2023/12/07 01:45:37;;;;;;;46.33;31.60;;;;;;;2.05;100.00;101758.19;6202392;28;20251;-75
2023/12/07 01:48:59;;;;;;;38.10;30.50;;;;;;;2.12;100.00;101757.88;6216022;28;20248;-75
2023/12/07 01:52:22;;;;;;;44.33;33.47;;;;;;;2.17;100.00;101768.34;6215839;28;20252;-75
2023/12/07 01:55:44;;;;;;;44.57;31.27;;;;;;;2.07;100.00;101765.16;6216156;28;20311;-76
2023/12/07 01:59:07;;;;;;;52.93;35.33;;;;;;;1.90;100.00;101766.78;6205558;28;20228;-76
2023/12/07 02:02:28;;;;;;;52.97;33.23;;;;;;;1.97;100.00;101766.47;6213235;28;20236;-75
2023/12/07 02:05:49;;;;;;;52.10;31.13;;;;;;;2.05;100.00;101772.34;6213057;28;20256;-75
2023/12/07 02:09:10;;;;;;;45.50;31.73;;;;;;;2.10;100.00;101765.06;6219311;28;20236;-75
2023/12/07 02:12:31;;;;;;;52.33;34.40;;;;;;;1.91;100.00;101766.72;6221924;28;20697;-77
2023/12/07 02:15:56;;;;;;;41.10;31.23;;;;;;;1.77;100.00;101760.19;6217560;28;20602;-75
2023/12/07 02:19:39;;;;;;;50.23;35.67;;;;;;;1.70;100.00;101778.16;6217847;28;20315;-74
2023/12/07 02:23:02;;;;;;;49.00;30.80;;;;;;;1.66;100.00;101775.66;6203175;28;20240;-75
2023/12/07 02:27:01;;;;;;;55.50;32.47;;;;;;;1.75;100.00;101773.53;6216538;28;20233;-76
2023/12/07 02:30:22;;;;;;;42.60;31.70;;;;;;;1.54;100.00;101782.31;6217810;28;20319;-75
2023/12/07 02:33:43;;;;;;;50.47;35.07;;;;;;;1.75;100.00;101785.97;6217575;28;20499;-75
2023/12/07 02:37:05;;;;;;;48.17;33.63;;;;;;;1.79;100.00;101782.25;6219009;28;20232;-74
2023/12/07 02:40:28;;;;;;;52.87;34.13;;;;;;;1.77;100.00;101789.44;6216202;28;20240;-75
2023/12/07 02:43:51;;;;;;;46.03;28.93;;;;;;;1.89;100.00;101795.13;6204928;28;20244;-75
2023/12/07 02:47:12;;;;;;;48.87;32.47;;;;;;;1.78;100.00;101794.66;6196326;28;20271;-75
2023/12/07 02:50:33;;;;;;;44.63;28.33;;;;;;;1.87;100.00;101788.16;6217041;28;20233;-75
2023/12/07 02:53:54;;;;;;;44.73;30.27;;;;;;;1.78;100.00;101793.78;6214919;28;20622;-75
2023/12/07 02:57:15;;;;;;;54.40;33.63;;;;;;;1.87;100.00;101793.47;6214186;28;20228;-74
2023/12/07 03:00:37;;;;;;;43.97;28.13;;;;;;;1.99;100.00;101795.63;6214998;28;20232;-75
2023/12/07 03:03:58;;;;;;;39.13;29.90;;;;;;;2.01;100.00;101788.47;6205180;28;20241;-75
2023/12/07 03:07:19;;;;;;;34.43;22.83;;;;;;;2.04;100.00;101799.88;6215342;28;20232;-75
2023/12/07 03:10:40;;;;;;;38.27;28.07;;;;;;;2.25;100.00;101793.69;6222412;28;20232;-75
2023/12/07 03:14:01;;;;;;;35.53;23.13;;;;;;;2.21;100.00;101793.91;6220747;28;20232;-75
2023/12/07 03:17:24;;;;;;;40.10;29.07;;;;;;;2.06;100.00;101797.16;6217342;28;20267;-75
2023/12/07 03:20:45;;;;;;;31.43;21.43;;;;;;;2.15;100.00;101808.28;6216768;28;20613;-75
2023/12/07 03:24:07;;;;;;;43.83;29.50;;;;;;;1.96;100.00;101807.25;6220539;28;20331;-75
2023/12/07 03:27:28;;;;;;;44.77;27.60;;;;;;;2.06;100.00;101803.34;6221117;28;20256;-75
2023/12/07 03:30:49;;;;;;;35.87;24.87;;;;;;;2.15;100.00;101802.97;6218349;28;20228;-75
2023/12/07 03:34:15;;;;;;;36.13;24.90;;;;;;;2.10;100.00;101801.41;6218645;28;20605;-74
2023/12/07 03:37:36;;;;;;;38.63;30.00;;;;;;;1.98;100.00;101801.91;6183262;28;20263;-75
2023/12/07 03:40:57;;;;;;;36.67;26.97;;;;;;;2.12;100.00;101805.75;6214660;28;20490;-76
2023/12/07 03:44:18;;;;;;;44.83;28.80;;;;;;;2.21;100.00;101801.88;6218143;28;20702;-75
2023/12/07 03:47:39;;;;;;;40.03;26.17;;;;;;;2.24;100.00;101812.38;6212178;28;20238;-75
2023/12/07 03:51:02;;;;;;;34.77;24.17;;;;;;;2.13;100.00;101811.91;6209982;28;20236;-75
2023/12/07 03:54:23;;;;;;;37.70;26.40;;;;;;;2.27;100.00;101806.94;6228151;28;20228;-77
2023/12/07 03:57:44;;;;;;;41.60;26.53;;;;;;;2.38;100.00;101800.25;6227048;28;20232;-74
2023/12/07 04:01:05;;;;;;;38.80;25.83;;;;;;;2.17;100.00;101795.78;6224298;28;20323;-75
2023/12/07 04:04:25;;;;;;;37.57;28.33;;;;;;;2.13;100.00;101796.84;6220311;28;20263;-75
2023/12/07 04:07:48;;;;;;;37.73;27.93;;;;;;;2.34;100.00;101806.63;6223565;28;20236;-75
2023/12/07 04:11:09;;;;;;;41.87;25.20;;;;;;;2.41;100.00;101807.25;6226073;28;20300;-74
2023/12/07 04:14:30;;;;;;;33.37;24.90;;;;;;;2.36;100.00;101810.09;6221293;28;20228;-75
2023/12/07 04:17:52;;;;;;;33.07;25.90;;;;;;;2.42;100.00;101822.28;6219830;28;20237;-74
2023/12/07 04:21:13;;;;;;;36.40;27.20;;;;;;;2.39;100.00;101822.41;6219447;28;21041;-75
2023/12/07 04:24:35;;;;;;;35.87;25.77;;;;;;;2.37;100.00;101822.47;6221094;28;20320;-75
2023/12/07 04:27:56;;;;;;;31.57;23.80;;;;;;;2.52;100.00;101810.34;6215905;28;20514;-75
2023/12/07 04:31:17;;;;;;;30.07;24.00;;;;;;;2.62;100.00;101813.50;6218701;28;20233;-75
2023/12/07 04:34:38;;;;;;;27.53;20.70;;;;;;;2.67;100.00;101800.88;6213209;28;20266;-74
2023/12/07 04:37:59;;;;;;;33.40;24.97;;;;;;;2.50;100.00;101814.88;6219570;28;20232;-75
2023/12/07 04:41:21;;;;;;;29.57;23.60;;;;;;;2.27;100.00;101825.56;6218042;28;20225;-75
2023/12/07 04:44:42;;;;;;;39.33;25.77;;;;;;;2.26;100.00;101826.47;6211133;28;20232;-74
2023/12/07 04:48:04;;;;;;;32.50;25.67;;;;;;;2.21;100.00;101824.00;6226313;28;20232;-75
2023/12/07 04:51:25;;;;;;;32.77;26.10;;;;;;;2.13;100.00;101835.84;6224223;28;20502;-74
2023/12/07 04:54:46;;;;;;;39.13;24.63;;;;;;;2.13;100.00;101834.06;6223454;28;20521;-75
2023/12/07 04:58:08;;;;;;;34.00;25.53;;;;;;;2.20;100.00;101832.03;6224006;28;20322;-75
2023/12/07 05:01:29;;;;;;;36.70;28.07;;;;;;;2.36;100.00;101839.34;6218445;28;20232;-75
2023/12/07 05:04:50;;;;;;;28.13;22.40;;;;;;;2.33;100.00;101844.81;6221156;28;20248;-75
2023/12/07 05:08:11;;;;;;;38.80;27.33;;;;;;;2.37;100.00;101843.75;6221600;28;20232;-75
2023/12/07 05:11:32;;;;;;;38.43;26.03;;;;;;;2.47;100.00;101836.28;6213421;28;20256;-75
2023/12/07 05:14:55;;;;;;;29.53;23.33;;;;;;;2.64;100.00;101840.91;6222125;28;20237;-75
2023/12/07 05:18:15;;;;;;;48.93;37.13;;;;;;;2.68;100.00;101846.06;6206737;28;20228;-76
2023/12/07 05:21:38;;;;;;;35.77;24.53;;;;;;;2.59;100.00;101849.06;6218957;28;20237;-76
2023/12/07 05:24:59;;;;;;;33.60;23.80;;;;;;;2.25;100.00;101856.69;6219263;28;20244;-76
2023/12/07 05:28:20;;;;;;;34.20;27.20;;;;;;;2.13;100.00;101850.03;6222037;28;20228;-77
2023/12/07 05:31:43;;;;;;;26.07;20.30;;;;;;;2.11;100.00;101856.31;6222258;28;20240;-75
2023/12/07 05:35:05;;;;;;;26.10;20.50;;;;;;;2.07;100.00;101865.34;6205590;28;20232;-75
2023/12/07 05:38:26;;;;;;;24.13;19.87;;;;;;;2.00;100.00;101862.03;6220099;28;20232;-76
2023/12/07 05:41:47;;;;;;;29.73;21.07;;;;;;;2.10;100.00;101857.25;6210028;28;20232;-75
2023/12/07 05:45:10;;;;;;;25.67;21.63;;;;;;;2.21;100.00;101853.25;6218715;28;20729;-74
2023/12/07 05:48:32;;;;;;;30.67;22.60;;;;;;;2.24;100.00;101861.13;6221411;28;20232;-76
2023/12/07 05:51:53;;;;;;;27.47;22.03;;;;;;;2.18;100.00;101861.38;6217760;28;20236;-77
2023/12/07 05:55:14;;;;;;;27.67;22.43;;;;;;;2.31;100.00;101854.66;6222361;28;20248;-75
2023/12/07 05:58:35;;;;;;;23.07;18.30;;;;;;;2.43;100.00;101858.59;6213324;28;20232;-75
2023/12/07 06:01:56;;;;;;;28.03;21.83;;;;;;;2.48;100.00;101853.97;6213805;28;20312;-76
2023/12/07 06:05:18;;;;;;;23.30;18.77;;;;;;;2.46;100.00;101855.84;6223594;28;20236;-76
2023/12/07 06:08:39;;;;;;;26.20;16.33;;;;;;;2.47;100.00;101860.22;6222892;28;20498;-76
2023/12/07 06:12:00;;;;;;;26.43;20.73;;;;;;;2.30;100.00;101855.56;6220777;28;20577;-75
2023/12/07 06:15:21;;;;;;;30.40;20.50;;;;;;;2.31;100.00;101851.13;6216211;28;20233;-78
2023/12/07 06:18:42;;;;;;;28.20;20.57;;;;;;;2.46;100.00;101861.16;6216436;28;20245;-76
2023/12/07 06:22:05;;;;;;;27.80;19.77;;;;;;;2.48;100.00;101864.63;6215964;28;20680;-76
2023/12/07 06:25:26;;;;;;;26.23;21.73;;;;;;;2.49;100.00;101869.00;6215396;28;20314;-76
2023/12/07 06:28:47;;;;;;;27.07;20.30;;;;;;;2.38;100.00;101868.53;6213822;28;20240;-77
2023/12/07 06:32:08;;;;;;;25.90;21.73;;;;;;;2.38;100.00;101869.41;6216427;28;20233;-77
2023/12/07 06:35:30;;;;;;;24.80;20.33;;;;;;;2.39;100.00;101870.28;6213804;28;20229;-78
2023/12/07 06:38:52;;;;;;;22.53;18.37;;;;;;;2.54;100.00;101868.81;6213916;28;20228;-78
2023/12/07 06:42:13;;;;;;;27.87;23.60;;;;;;;2.61;100.00;101873.84;6219511;28;20232;-78
2023/12/07 06:45:34;;;;;;;22.03;19.43;;;;;;;2.74;100.00;101880.41;6205587;28;20739;-78
2023/12/07 06:48:55;;;;;;;28.93;20.97;;;;;;;2.84;100.00;101884.41;6218429;28;20232;-77
2023/12/07 06:52:16;;;;;;;31.00;22.23;;;;;;;2.65;100.00;101890.56;6222473;28;20236;-76
2023/12/07 06:55:38;;;;;;;33.20;24.53;;;;;;;2.52;100.00;101889.31;6220542;28;20232;-76
2023/12/07 06:58:59;;;;;;;29.80;22.83;;;;;;;2.49;100.00;101892.06;6223462;28;20228;-74
2023/12/07 07:02:20;;;;;;;26.80;21.40;;;;;;;2.56;100.00;101886.47;6220391;28;20459;-76
2023/12/07 07:05:42;;;;;;;32.40;25.30;;;;;;;2.51;100.00;101896.41;6216531;28;20231;-73
2023/12/07 07:09:04;;;;;;;33.83;24.27;;;;;;;2.55;100.00;101900.69;6220284;28;20228;-75
2023/12/07 07:12:26;;;;;;;32.67;25.80;;;;;;;2.61;100.00;101903.09;6216228;28;20228;-76
2023/12/07 07:15:48;;;;;;;37.37;26.00;;;;;;;2.63;100.00;101906.56;6211351;28;20233;-79
2023/12/07 07:19:09;;;;;;;33.37;23.63;;;;;;;2.42;100.00;101905.63;6218027;28;20319;-75
2023/12/07 07:22:30;;;;;;;32.17;23.77;;;;;;;2.42;100.00;101910.06;6212655;28;20847;-75
2023/12/07 07:25:51;;;;;;;29.63;23.43;;;;;;;2.54;100.00;101914.06;6211430;28;20244;-76
2023/12/07 07:29:14;;;;;;;35.50;26.03;;;;;;;2.72;100.00;101916.88;6216636;28;20232;-80
2023/12/07 07:32:36;;;;;;;41.10;29.83;;;;;;;2.77;100.00;101912.25;6213332;28;20618;-82
2023/12/07 07:35:59;;;;;;;32.10;28.40;;;;;;;2.75;100.00;101911.44;6211971;28;20524;-74
2023/12/07 07:39:20;;;;;;;31.03;23.13;;;;;;;2.75;100.00;101907.91;6219083;28;20229;-78
2023/12/07 07:42:41;;;;;;;34.80;26.30;;;;;;;2.88;100.00;101907.31;6213403;28;20232;-79
2023/12/07 07:46:04;;;;;;;28.03;23.23;;;;;;;2.84;100.00;101905.72;6223640;28;20271;-77
2023/12/07 07:49:26;;;;;;;30.73;24.87;;;;;;;2.78;100.00;101915.75;6222094;28;20602;-77
2023/12/07 07:52:48;;;;;;;35.43;24.33;;;;;;;2.96;100.00;101910.53;6222247;28;20236;-76
2023/12/07 07:56:09;;;;;;;42.87;32.60;;;;;;;2.96;100.00;101926.50;6213410;28;20236;-79
2023/12/07 07:59:31;;;;;;;37.77;29.63;;;;;;;2.99;100.00;101921.09;6221659;28;20225;-75
2023/12/07 08:02:53;;;;;;;38.83;31.13;;;;;;;2.98;100.00;101929.13;6217773;28;20236;-78
2023/12/07 08:06:14;;;;;;;29.07;23.23;;;;;;;2.92;100.00;101934.72;6214950;28;20232;-79
2023/12/07 08:09:35;;;;;;;30.63;24.90;;;;;;;2.77;100.00;101933.53;6223706;28;20240;-78
2023/12/07 08:12:56;;;;;;;30.17;24.27;;;;;;;2.96;100.00;101937.16;6224684;28;20236;-78
2023/12/07 08:16:17;;;;;;;28.23;24.93;;;;;;;2.73;100.00;101933.72;6205982;28;20220;-77
2023/12/07 08:19:39;;;;;;;33.90;23.33;;;;;;;2.75;100.00;101939.84;6223264;28;20248;-78
2023/12/07 08:23:00;;;;;;;26.63;19.23;;;;;;;2.81;100.00;101931.59;6219894;28;20662;-80
2023/12/07 08:26:22;;;;;;;28.93;23.93;;;;;;;2.67;100.00;101940.13;6226515;28;20749;-79
2023/12/07 08:29:44;;;;;;;28.57;25.27;;;;;;;2.66;100.00;101943.72;6224676;28;20228;-78
2023/12/07 08:33:06;;;;;;;29.73;23.10;;;;;;;2.93;100.00;101949.75;6213755;28;20225;-77
2023/12/07 08:36:28;;;;;;;27.97;21.57;;;;;;;2.96;100.00;101947.81;6225236;28;20233;-75
2023/12/07 08:39:49;;;;;;;28.93;25.47;;;;;;;2.87;100.00;101942.88;6229585;28;21208;-78
2023/12/07 08:43:10;;;;;;;31.50;24.07;;;;;;;3.08;100.00;101950.00;6233580;28;20232;-78
2023/12/07 08:46:31;;;;;;;29.17;23.70;;;;;;;3.05;100.00;101962.56;6221278;28;20248;-80
2023/12/07 08:49:52;;;;;;;29.53;22.73;;;;;;;3.04;100.00;101952.84;6231482;28;20228;-79
2023/12/07 08:53:14;;;;;;;32.70;21.90;;;;;;;3.14;100.00;101955.09;6225291;28;20232;-75
2023/12/07 08:56:35;;;;;;;30.10;24.00;;;;;;;3.36;100.00;101940.88;6225626;28;20534;-75
2023/12/07 08:59:55;;;;;;;33.97;24.80;;;;;;;3.38;100.00;101942.53;6222629;28;20228;-77
2023/12/07 09:03:16;;;;;;;33.83;22.87;;;;;;;3.58;100.00;101947.03;6224549;28;20233;-76
2023/12/07 09:06:37;;;;;;;33.97;23.03;;;;;;;3.84;100.00;101938.75;6223420;28;20236;-75
2023/12/07 09:09:59;;;;;;;35.40;28.33;;;;;;;3.93;100.00;101944.56;6224438;28;20241;-76
2023/12/07 09:13:20;;;;;;;34.70;26.87;;;;;;;3.91;100.00;101950.88;6223208;28;20240;-74
2023/12/07 09:16:45;;;;;;;33.17;27.40;;;;;;;3.59;100.00;101946.94;6220681;28;20228;-76
2023/12/07 09:20:11;;;;;;;33.23;26.60;;;;;;;4.28;100.00;101956.31;6228790;28;20236;-80
2023/12/07 09:23:33;;;;;;;28.67;22.73;;;;;;;4.73;100.00;101946.19;6229155;28;20228;-78
2023/12/07 09:26:55;;;;;;;31.27;24.63;;;;;;;4.40;100.00;101949.56;6227169;28;20237;-78
2023/12/07 09:30:16;;;;;;;31.07;27.53;;;;;;;4.33;100.00;101950.75;6225279;28;20228;-82
2023/12/07 09:33:37;;;;;;;35.63;27.63;;;;;;;3.93;100.00;101946.34;6226438;28;21357;-79
2023/12/07 09:37:07;;;;;;;38.40;27.83;;;;;;;3.67;100.00;101954.63;6225956;28;20236;-77
2023/12/07 09:40:28;;;;;;;31.43;24.30;;;;;;;3.24;100.00;101961.75;6226675;28;20319;-79
2023/12/07 09:43:51;;;;;;;30.67;24.97;;;;;;;2.75;100.00;101966.47;6218704;28;20229;-75
2023/12/07 09:47:12;;;;;;;32.93;23.33;;;;;;;2.54;100.00;101968.16;6217827;28;20677;-73
2023/12/07 09:50:33;;;;;;;29.70;22.00;;;;;;;2.71;100.00;101968.34;6221641;28;20232;-76
2023/12/07 09:53:54;;;;;;;36.53;29.13;;;;;;;2.45;100.00;101949.88;6214133;28;20220;-74
2023/12/07 09:57:16;;;;;;;36.77;27.40;;;;;;;2.55;100.00;101955.69;6220826;28;20794;-74
2023/12/07 10:00:38;;;;;;;37.90;27.10;;;;;;;2.56;100.00;101958.31;6222874;28;20262;-75
2023/12/07 10:04:17;;;;;;;39.50;29.83;;;;;;;2.54;100.00;101965.50;6223768;28;20233;-75
2023/12/07 10:07:41;;;;;;;37.97;28.40;;;;;;;2.80;100.00;101968.00;6220586;28;20232;-74
2023/12/07 10:11:04;;;;;;;33.63;26.33;;;;;;;2.73;100.00;101974.53;6209173;28;20232;-75
2023/12/07 10:14:25;;;;;;;37.77;28.97;;;;;;;2.54;100.00;101978.81;6224333;28;20244;-75
2023/12/07 10:17:49;;;;;;;32.33;22.87;;;;;;;2.42;100.00;101988.09;6223417;28;20229;-74
2023/12/07 10:21:10;;;;;;;34.00;27.10;;;;;;;2.36;100.00;101984.78;6215137;28;21427;-75
2023/12/07 10:24:31;;;;;;;33.03;23.63;;;;;;;2.21;100.00;101980.91;6226520;28;20311;-75
2023/12/07 10:27:52;;;;;;;37.90;27.47;;;;;;;2.21;100.00;101980.06;6226423;28;20244;-76
2023/12/07 10:31:19;;;;;;;37.27;28.60;;;;;;;2.29;100.00;101975.31;6225231;28;20335;-76
2023/12/07 10:34:41;;;;;;;33.10;26.97;;;;;;;2.32;100.00;101978.72;6228498;28;20792;-75
2023/12/07 10:38:02;;;;;;;41.37;29.53;;;;;;;2.31;100.00;101985.00;6227388;28;21118;-77
2023/12/07 10:41:25;;;;;;;36.23;28.30;;;;;;;2.51;100.00;101976.25;6227150;28;20228;-77
2023/12/07 10:44:51;;;;;;;37.77;24.83;;;;;;;2.47;100.00;101979.06;6222657;28;20236;-77
2023/12/07 10:48:12;;;;;;;37.40;28.93;;;;;;;2.33;100.00;101984.94;6223248;28;20244;-76
2023/12/07 10:51:38;;;;;;;44.03;30.23;;;;;;;2.32;100.00;101975.19;6222306;28;20339;-77
2023/12/07 10:55:04;;;;;;;44.80;32.33;;;;;;;2.42;100.00;101974.78;6224776;28;20308;-77
2023/12/07 10:58:26;;;;;;;46.13;33.27;;;;;;;2.65;100.00;101976.56;6219017;28;20233;-76
2023/12/07 11:01:48;;;;;;;43.67;30.03;;;;;;;2.88;100.00;101978.38;6216360;28;20224;-76
2023/12/07 11:05:10;;;;;;;44.80;34.40;;;;;;;2.55;100.00;101972.53;6220430;28;20228;-77
2023/12/07 11:08:37;;;;;;;47.83;31.47;;;;;;;2.76;100.00;101973.50;6220038;28;20642;-75
2023/12/07 11:12:05;;;;;;;43.00;33.40;;;;;;;2.80;100.00;101970.66;6220095;28;20658;-76
2023/12/07 11:15:26;;;;;;;41.37;31.43;;;;;;;2.86;100.00;101967.75;6227299;28;20236;-77
2023/12/07 11:18:47;;;;;;;47.27;31.70;;;;;;;3.01;100.00;101971.59;6228587;28;20501;-75
2023/12/07 11:22:10;;;;;;;39.77;29.43;;;;;;;3.02;100.00;101974.22;6228624;28;20501;-76
2023/12/07 11:25:32;;;;;;;45.40;30.40;;;;;;;3.05;100.00;101963.44;6227238;28;20236;-76
2023/12/07 11:28:56;;;;;;;35.53;29.00;;;;;;;3.13;100.00;101955.13;6224884;28;20240;-76
2023/12/07 11:32:17;;;;;;;34.10;27.00;;;;;;;3.06;100.00;101961.66;6222801;28;20255;-78
2023/12/07 11:36:03;;;;;;;37.60;30.93;;;;;;;3.07;100.00;101961.59;6211972;28;20260;-77
2023/12/07 11:39:29;;;;;;;37.70;29.00;;;;;;;3.14;100.00;101956.88;6225260;28;20562;-76
2023/12/07 11:42:53;;;;;;;36.03;29.23;;;;;;;3.04;100.00;101953.72;6224225;28;20236;-77
2023/12/07 11:46:15;;;;;;;33.27;24.93;;;;;;;3.11;100.00;101954.31;6225475;28;20259;-78
2023/12/07 11:49:36;;;;;;;38.03;28.43;;;;;;;3.04;100.00;101959.06;6215831;28;20220;-80
2023/12/07 11:52:57;;;;;;;29.87;22.33;;;;;;;2.74;100.00;101952.28;6226738;28;20220;-80
2023/12/07 11:56:21;;;;;;;34.93;23.63;;;;;;;2.82;100.00;101950.19;6227604;28;20232;-78
2023/12/07 11:59:44;;;;;;;32.90;25.13;;;;;;;2.84;100.00;101961.63;6225013;28;20232;-84
2023/12/07 12:03:06;;;;;;;29.47;23.10;;;;;;;2.71;100.00;101957.72;6227479;28;20236;-76
2023/12/07 12:06:28;;;;;;;38.40;29.27;;;;;;;2.97;100.00;101949.56;6225123;28;20236;-76
2023/12/07 12:09:49;;;;;;;37.70;25.17;;;;;;;3.16;100.00;101947.91;6227430;28;20657;-77
2023/12/07 12:13:10;;;;;;;28.07;23.23;;;;;;;3.10;100.00;101932.16;6211120;28;20606;-75
2023/12/07 12:16:33;;;;;;;34.27;23.30;;;;;;;3.17;100.00;101927.47;6228808;28;20236;-77
2023/12/07 12:19:54;;;;;;;30.87;24.43;;;;;;;3.22;100.00;101929.00;6234272;28;20229;-81
2023/12/07 12:23:15;;;;;;;28.90;22.07;;;;;;;3.12;100.00;101914.31;6240881;28;21243;-78
2023/12/07 12:26:38;;;;;;;30.17;24.17;;;;;;;3.29;100.00;101920.75;6215956;28;20228;-82
2023/12/07 12:30:03;;;;;;;26.40;20.80;;;;;;;3.43;100.00;101905.91;6220108;28;20587;-79
2023/12/07 12:33:25;;;;;;;25.20;20.73;;;;;;;3.61;100.00;101907.75;6227423;28;20241;-77
2023/12/07 12:36:46;;;;;;;30.17;25.03;;;;;;;3.64;100.00;101912.09;6205944;28;20225;-79
2023/12/07 12:40:07;;;;;;;25.77;21.20;;;;;;;3.72;100.00;101915.28;6224876;28;20229;-77
2023/12/07 12:43:29;;;;;;;23.53;19.77;;;;;;;3.68;100.00;101913.69;6218183;28;20233;-82
2023/12/07 12:46:50;;;;;;;27.23;20.47;;;;;;;3.66;100.00;101912.91;6231299;28;20224;-80
2023/12/07 12:50:13;;;;;;;24.40;20.23;;;;;;;3.58;100.00;101909.69;6217688;28;20494;-81
2023/12/07 12:53:35;;;;;;;27.47;21.80;;;;;;;3.49;100.00;101902.97;6231748;28;20236;-78
2023/12/07 12:56:57;;;;;;;31.17;21.07;;;;;;;3.55;100.00;101908.03;6226443;28;20224;-78
2023/12/07 13:00:19;;;;;;;37.87;30.33;;;;;;;3.67;100.00;101903.97;6215207;28;20457;-81
2023/12/07 13:03:40;;;;;;;39.57;29.87;;;;;;;3.53;100.00;101901.03;6228926;28;20885;-78
2023/12/07 13:07:02;;;;;;;36.00;28.40;;;;;;;3.32;100.00;101902.81;6229258;28;20259;-75
2023/12/07 13:10:23;;;;;;;40.73;32.07;;;;;;;3.24;100.00;101900.50;6224671;28;20221;-76
2023/12/07 13:13:47;;;;;;;34.37;24.63;;;;;;;3.20;100.00;101890.91;6224495;28;20236;-81
2023/12/07 13:17:08;;;;;;;37.40;27.60;;;;;;;3.24;100.00;101892.50;6233053;28;20678;-77
2023/12/07 13:20:29;;;;;;;33.57;25.77;;;;;;;3.29;100.00;101886.97;6228570;28;20236;-81
2023/12/07 13:23:51;;;;;;;30.87;25.70;;;;;;;3.14;100.00;101884.94;6212528;28;20228;-78
2023/12/07 13:27:12;;;;;;;28.93;21.37;;;;;;;3.26;100.00;101881.75;6211788;28;20283;-75
2023/12/07 13:30:35;;;;;;;28.80;20.80;;;;;;;3.29;100.00;101884.31;6230701;28;20228;-73
2023/12/07 13:33:56;;;;;;;28.73;21.13;;;;;;;3.16;100.00;101891.97;6223717;28;20224;-77
2023/12/07 13:37:17;;;;;;;27.30;22.07;;;;;;;3.41;100.00;101894.44;6223659;28;20534;-79
2023/12/07 13:40:40;;;;;;;21.13;17.27;;;;;;;3.42;100.00;101879.31;6211943;28;20236;-82
2023/12/07 13:44:02;;;;;;;23.90;19.17;;;;;;;3.34;100.00;101866.31;6227995;28;20229;-80
2023/12/07 13:47:26;;;;;;;20.87;16.97;;;;;;;3.42;100.00;101871.34;6225386;28;20233;-79
2023/12/07 13:50:47;;;;;;;19.33;17.03;;;;;;;3.35;100.00;101875.19;6226077;28;20220;-77
2023/12/07 13:54:08;;;;;;;24.90;18.67;;;;;;;3.41;100.00;101880.25;6228530;28;20232;-79
2023/12/07 13:57:30;;;;;;;24.43;21.77;;;;;;;3.37;100.00;101876.84;6205228;28;20258;-79
2023/12/07 14:00:51;;;;;;;22.00;17.47;;;;;;;3.36;100.00;101876.94;6223057;28;20233;-75
2023/12/07 14:04:12;;;;;;;25.37;18.13;;;;;;;3.42;100.00;101884.66;6229539;28;20319;-77
2023/12/07 14:07:33;;;;;;;22.00;18.40;;;;;;;3.49;100.00;101872.78;6228193;28;20236;-80
2023/12/07 14:10:54;;;;;;;24.57;18.07;;;;;;;3.41;100.00;101874.91;6211419;28;20226;-84
2023/12/07 14:14:16;;;;;;;28.50;20.73;;;;;;;3.46;100.00;101879.13;6218377;28;20229;-82
2023/12/07 14:17:38;;;;;;;21.83;18.67;;;;;;;3.53;100.00;101877.91;6226621;28;20263;-81
2023/12/07 14:20:59;;;;;;;24.43;19.37;;;;;;;3.52;100.00;101870.88;6208391;28;20237;-81
2023/12/07 14:24:20;;;;;;;25.73;20.23;;;;;;;3.50;100.00;101864.72;6222886;28;20232;-79
2023/12/07 14:27:41;;;;;;;25.47;21.53;;;;;;;3.45;100.00;101868.50;6223720;28;20232;-77
2023/12/07 14:31:04;;;;;;;26.90;19.47;;;;;;;3.37;100.00;101865.31;6208697;28;20513;-75
2023/12/07 14:34:25;;;;;;;29.20;21.73;;;;;;;3.38;100.00;101867.91;6207967;28;20694;-81
2023/12/07 14:37:47;;;;;;;29.43;23.93;;;;;;;3.46;100.00;101862.28;6222279;28;20231;-78
2023/12/07 14:41:08;;;;;;;25.37;19.03;;;;;;;3.29;100.00;101855.00;6205940;28;20228;-79
2023/12/07 14:44:29;;;;;;;26.33;20.90;;;;;;;3.21;100.00;101859.81;6227130;28;20236;-77
2023/12/07 14:47:52;;;;;;;26.30;21.27;;;;;;;2.95;100.00;101865.34;6227439;28;20260;-76
2023/12/07 14:51:18;;;;;;;28.90;21.40;;;;;;;2.90;100.00;101873.50;6228589;28;20232;-79
2023/12/07 14:54:39;;;;;;;28.90;20.40;;;;;;;2.79;100.00;101854.47;6227970;28;20563;-77
2023/12/07 14:58:00;;;;;;;25.97;21.27;;;;;;;3.04;100.00;101860.50;6225662;28;20247;-80
2023/12/07 15:01:21;;;;;;;25.57;20.13;;;;;;;3.10;100.00;101857.59;6206829;28;20224;-79
2023/12/07 15:04:45;;;;;;;26.10;20.30;;;;;;;2.97;100.00;101869.69;6214691;28;20240;-77
2023/12/07 15:08:06;;;;;;;28.73;23.23;;;;;;;2.81;100.00;101886.34;6227723;28;20236;-79
2023/12/07 15:11:27;;;;;;;29.50;21.10;;;;;;;2.75;100.00;101884.81;6225225;28;20499;-78
2023/12/07 15:14:48;;;;;;;25.50;20.83;;;;;;;2.89;100.00;101887.78;6226638;28;20506;-77
2023/12/07 15:18:09;;;;;;;35.07;24.47;;;;;;;2.58;100.00;101886.41;6229902;28;20228;-78